Station Historical Data
Daily Summary for October 16, 2017 Units:  English    Metric   Both
« Previous Day
Next Day »
Daily Weekly Monthly Yearly Custom
  High: Low: Average:
Temperature: 69.4 °F 50.1 °F 59.5 °F
Dew Point: 67.2 °F 44.6 °F 52.9 °F
Humidity: 93% 58% 80%
Wind Speed: 18.0mph 1.0mph 11.1mph
Wind Gust: 29.0mph - -
Wind- - NW
Pressure: 30.25 in 30.05 in -
Precipitation: 0.16 in    
Historical Graphs
 
 
Tabular Data for October 16, 2017
Time Temperature Dew Point Pressure Wind Wind Speed Wind Gust Humidity Rainfall Rate (Hourly) Conditions
00:00 68.1 °F 65.7 °F 30.06 in SSE 2.0 mph 2.0 mph 92% 0.00 in BKN
00:05 68.1 °F 65.7 °F 30.05 in SSE 2.0 mph 2.0 mph 92% 0.00 in BKN
00:10 68.2 °F 65.8 °F 30.05 in SSE 2.0 mph 2.0 mph 92% 0.00 in BKN
00:15 68.2 °F 65.8 °F 30.05 in WSW 1.0 mph 2.0 mph 92% 0.00 in BKN
00:20 68.2 °F 65.8 °F 30.05 in NNW 1.0 mph 1.0 mph 92% 0.00 in BKN
00:25 68.3 °F 65.9 °F 30.05 in NNW 1.0 mph 1.0 mph 92% 0.00 in BKN
00:30 68.2 °F 65.8 °F 30.05 in NNW 1.0 mph 1.0 mph 92% 0.00 in BKN
00:35 68.2 °F 65.8 °F 30.05 in NNW 1.0 mph 1.0 mph 92% 0.00 in BKN
00:40 68.4 °F 66.3 °F 30.06 in NNW 1.0 mph 1.0 mph 93% 0.00 in BKN
00:45 68.8 °F 66.7 °F 30.06 in NNW 1.0 mph 1.0 mph 93% 0.00 in BKN
00:50 69.1 °F 66.9 °F 30.06 in NNW 1.0 mph 1.0 mph 93% 0.00 in BKN
00:55 69.3 °F 67.2 °F 30.06 in NNW 1.0 mph 1.0 mph 93% 0.00 in BKN
01:00 69.4 °F 67.0 °F 30.07 in NNW 1.0 mph 1.0 mph 92% 0.00 in BKN
01:05 69.3 °F 66.9 °F 30.06 in NNW 1.0 mph 1.0 mph 92% 0.00 in BKN
01:10 69.2 °F 66.8 °F 30.06 in NNW 1.0 mph 1.0 mph 92% 0.01 in RA
01:15 69.2 °F 66.8 °F 30.06 in WNW 10.0 mph 10.0 mph 92% 0.01 in -RA
01:20 69.0 °F 66.6 °F 30.06 in West 10.0 mph 10.0 mph 92% 0.02 in -RA
01:25 68.9 °F 66.5 °F 30.06 in West 14.0 mph 14.0 mph 92% 0.00 in -RA
01:30 68.8 °F 66.4 °F 30.07 in West 14.0 mph 14.0 mph 92% 0.01 in -RA
01:35 68.7 °F 66.3 °F 30.06 in West 14.0 mph 14.0 mph 92% 0.01 in -RA
01:45 68.6 °F 66.5 °F 30.06 in West 14.0 mph 14.0 mph 93% 0.01 in -RA
01:55 68.3 °F 66.2 °F 30.06 in West 14.0 mph 14.0 mph 93% 0.00 in -RA
02:00 68.3 °F 66.2 °F 30.06 in West 14.0 mph 14.0 mph 93% 0.01 in -RA
02:05 68.1 °F 66.0 °F 30.06 in West 14.0 mph 14.0 mph 93% 0.00 in -RA
02:10 67.9 °F 65.8 °F 30.06 in West 14.0 mph 14.0 mph 93% 0.00 in -RA
02:15 67.5 °F 65.1 °F 30.06 in WNW 8.0 mph 14.0 mph 92% 0.01 in -RA
02:20 67.3 °F 64.9 °F 30.07 in NW 8.0 mph 8.0 mph 92% 0.00 in -RA
02:25 66.9 °F 64.5 °F 30.07 in WNW 13.0 mph 13.0 mph 92% 0.00 in -RA
02:30 66.6 °F 64.2 °F 30.06 in WNW 13.0 mph 13.0 mph 92% 0.00 in -RA
02:35 66.4 °F 64.0 °F 30.06 in WNW 13.0 mph 13.0 mph 92% 0.00 in -RA
02:40 66.1 °F 63.7 °F 30.06 in WNW 13.0 mph 13.0 mph 92% 0.00 in -RA
02:45 65.9 °F 63.5 °F 30.06 in WNW 13.0 mph 13.0 mph 92% 0.01 in -RA
02:50 65.6 °F 63.2 °F 30.06 in WNW 13.0 mph 13.0 mph 92% 0.00 in -RA
02:55 65.4 °F 63.0 °F 30.06 in WNW 13.0 mph 13.0 mph 92% 0.00 in -RA
03:00 65.1 °F 62.7 °F 30.06 in WNW 13.0 mph 13.0 mph 92% 0.01 in -RA
03:05 64.9 °F 62.5 °F 30.06 in WNW 13.0 mph 13.0 mph 92% 0.00 in -RA
03:10 64.6 °F 62.3 °F 30.06 in WNW 13.0 mph 13.0 mph 92% 0.01 in -RA
03:15 64.4 °F 62.0 °F 30.06 in NW 10.0 mph 13.0 mph 92% 0.00 in OVC
03:20 64.3 °F 61.9 °F 30.06 in NW 10.0 mph 10.0 mph 92% 0.00 in OVC
03:25 64.1 °F 61.7 °F 30.06 in NW 10.0 mph 10.0 mph 92% 0.00 in OVC
03:30 63.9 °F 61.5 °F 30.06 in NW 10.0 mph 10.0 mph 92% 0.00 in OVC
03:35 63.8 °F 61.4 °F 30.06 in NW 10.0 mph 10.0 mph 92% 0.00 in OVC
03:40 63.5 °F 61.1 °F 30.05 in NW 10.0 mph 10.0 mph 92% 0.00 in OVC
03:45 63.5 °F 61.4 °F 30.06 in NW 8.0 mph 10.0 mph 93% 0.00 in OVC
03:50 63.4 °F 61.3 °F 30.05 in NW 8.0 mph 8.0 mph 93% 0.00 in OVC
03:55 63.2 °F 61.1 °F 30.05 in NW 8.0 mph 8.0 mph 93% 0.00 in OVC
04:00 63.0 °F 60.9 °F 30.06 in NW 8.0 mph 8.0 mph 93% 0.00 in OVC
04:05 62.8 °F 60.4 °F 30.06 in NW 8.0 mph 8.0 mph 92% 0.00 in OVC
04:10 62.5 °F 60.1 °F 30.06 in NW 8.0 mph 8.0 mph 92% 0.00 in OVC
04:15 62.4 °F 60.0 °F 30.06 in NW 12.0 mph 12.0 mph 92% 0.00 in -RA
04:20 62.2 °F 59.8 °F 30.06 in NW 12.0 mph 12.0 mph 92% 0.00 in -RA
04:25 62.0 °F 59.6 °F 30.06 in NW 12.0 mph 12.0 mph 92% 0.00 in -RA
04:30 61.9 °F 59.9 °F 30.06 in NW 12.0 mph 12.0 mph 93% 0.01 in -RA
04:35 61.8 °F 59.5 °F 30.06 in NW 12.0 mph 12.0 mph 92% 0.00 in -RA
04:40 61.6 °F 59.3 °F 30.06 in NW 12.0 mph 12.0 mph 92% 0.00 in -RA
04:45 61.4 °F 59.1 °F 30.06 in NW 12.0 mph 12.0 mph 92% 0.00 in -RA
04:50 61.3 °F 59.0 °F 30.06 in NW 12.0 mph 12.0 mph 92% 0.00 in -RA
04:55 61.2 °F 59.2 °F 30.06 in NW 5.0 mph 12.0 mph 93% 0.00 in -RA
05:00 61.1 °F 59.1 °F 30.05 in NW 5.0 mph 5.0 mph 93% 0.00 in -RA
05:05 61.0 °F 59.0 °F 30.05 in NW 5.0 mph 5.0 mph 93% 0.01 in -RA
05:10 61.0 °F 59.0 °F 30.05 in NW 5.0 mph 5.0 mph 93% 0.00 in -RA
05:15 60.8 °F 58.7 °F 30.05 in NW 10.0 mph 23.0 mph 93% 0.01 in -RA
05:20 60.6 °F 58.6 °F 30.06 in NW 10.0 mph 23.0 mph 93% 0.00 in -RA
05:25 60.3 °F 58.0 °F 30.06 in NW 10.0 mph 23.0 mph 92% 0.00 in -RA
05:30 59.9 °F 57.6 °F 30.06 in NW 10.0 mph 23.0 mph 92% 0.00 in -RA
05:35 59.6 °F 57.3 °F 30.06 in NW 10.0 mph 23.0 mph 92% 0.00 in -RA
05:40 59.3 °F 57.0 °F 30.06 in NW 10.0 mph 23.0 mph 92% 0.00 in -RA
05:45 58.9 °F 56.6 °F 30.06 in NW 10.0 mph 23.0 mph 92% 0.00 in -RA
05:50 58.7 °F 56.4 °F 30.06 in NW 10.0 mph 23.0 mph 92% 0.00 in -RA
05:55 58.6 °F 56.2 °F 30.06 in NW 9.0 mph 23.0 mph 92% 0.00 in OVC
06:00 58.4 °F 56.1 °F 30.06 in NW 9.0 mph 9.0 mph 92% 0.00 in OVC
06:05 58.3 °F 56.3 °F 30.06 in NW 9.0 mph 9.0 mph 93% 0.00 in OVC
06:10 58.3 °F 56.3 °F 30.06 in NW 9.0 mph 9.0 mph 93% 0.00 in OVC
06:15 58.1 °F 56.1 °F 30.06 in NW 8.0 mph 9.0 mph 93% 0.00 in OVC
06:20 58.0 °F 55.9 °F 30.06 in NW 8.0 mph 8.0 mph 93% 0.00 in OVC
06:25 57.7 °F 55.4 °F 30.06 in NW 10.0 mph 10.0 mph 92% 0.00 in OVC
06:30 57.5 °F 55.5 °F 30.07 in NW 10.0 mph 10.0 mph 93% 0.00 in OVC
06:35 57.3 °F 55.0 °F 30.07 in NW 10.0 mph 10.0 mph 92% 0.00 in OVC
06:40 57.1 °F 54.7 °F 30.07 in NW 10.0 mph 10.0 mph 92% 0.00 in OVC
06:50 56.8 °F 54.5 °F 30.06 in NW 16.0 mph 25.0 mph 92% 0.00 in OVC
06:55 56.6 °F 54.3 °F 30.07 in NW 17.0 mph 25.0 mph 92% 0.00 in OVC
07:00 56.5 °F 54.2 °F 30.07 in NW 17.0 mph 17.0 mph 92% 0.00 in OVC
07:05 56.2 °F 53.9 °F 30.07 in NW 17.0 mph 17.0 mph 92% 0.00 in OVC
07:10 56.1 °F 53.8 °F 30.07 in NW 17.0 mph 17.0 mph 92% 0.00 in OVC
07:15 55.9 °F 53.6 °F 30.07 in NW 18.0 mph 18.0 mph 92% 0.00 in OVC
07:20 55.7 °F 53.4 °F 30.07 in NW 18.0 mph 18.0 mph 92% 0.00 in OVC
07:25 55.4 °F 53.1 °F 30.07 in NW 18.0 mph 18.0 mph 92% 0.00 in OVC
07:30 55.3 °F 53.0 °F 30.08 in NW 18.0 mph 18.0 mph 92% 0.00 in OVC
07:40 54.9 °F 52.6 °F 30.09 in NW 18.0 mph 18.0 mph 92% 0.00 in OVC
07:45 54.8 °F 52.5 °F 30.09 in NW 18.0 mph 18.0 mph 92% 0.00 in OVC
07:50 54.6 °F 52.3 °F 30.09 in NW 18.0 mph 18.0 mph 92% 0.00 in OVC
07:55 54.4 °F 52.1 °F 30.09 in NW 18.0 mph 18.0 mph 92% 0.00 in OVC
08:00 54.3 °F 52.0 °F 30.10 in NW 18.0 mph 18.0 mph 92% 0.00 in OVC
08:05 54.2 °F 51.9 °F 30.10 in NW 18.0 mph 18.0 mph 92% 0.00 in OVC
08:10 54.1 °F 51.8 °F 30.10 in NW 18.0 mph 18.0 mph 92% 0.00 in OVC
08:15 53.9 °F 51.6 °F 30.10 in NW 12.0 mph 25.0 mph 92% 0.00 in OVC
08:20 53.7 °F 51.4 °F 30.11 in NW 12.0 mph 25.0 mph 92% 0.00 in OVC
08:25 53.6 °F 51.3 °F 30.11 in NW 12.0 mph 25.0 mph 92% 0.00 in OVC
08:30 53.6 °F 51.3 °F 30.11 in NW 12.0 mph 25.0 mph 92% 0.00 in OVC
08:35 53.3 °F 50.7 °F 30.11 in NW 12.0 mph 25.0 mph 91% 0.00 in OVC
08:40 53.3 °F 51.0 °F 30.12 in NW 12.0 mph 25.0 mph 92% 0.00 in OVC
08:45 53.2 °F 50.6 °F 30.11 in NW 12.0 mph 25.0 mph 91% 0.00 in OVC
08:50 53.1 °F 50.5 °F 30.12 in NW 12.0 mph 25.0 mph 91% 0.00 in OVC
08:55 53.1 °F 50.5 °F 30.12 in NW 12.0 mph 25.0 mph 91% 0.00 in OVC
09:00 53.1 °F 50.5 °F 30.12 in NW 12.0 mph 25.0 mph 91% 0.00 in OVC
09:05 53.2 °F 50.6 °F 30.12 in NW 12.0 mph 25.0 mph 91% 0.00 in OVC
09:10 53.2 °F 50.6 °F 30.12 in NW 12.0 mph 25.0 mph 91% 0.00 in OVC
09:15 53.3 °F 50.7 °F 30.13 in NW 8.0 mph 25.0 mph 91% 0.00 in OVC
09:20 53.2 °F 50.3 °F 30.13 in NW 8.0 mph 8.0 mph 90% 0.00 in OVC
09:25 53.2 °F 50.3 °F 30.13 in NW 8.0 mph 8.0 mph 90% 0.00 in OVC
09:30 53.3 °F 50.8 °F 30.13 in NW 8.0 mph 8.0 mph 91% 0.00 in OVC
09:40 53.2 °F 50.0 °F 30.14 in NW 8.0 mph 8.0 mph 89% 0.00 in OVC
09:45 53.0 °F 50.1 °F 30.13 in NW 9.0 mph 9.0 mph 90% 0.00 in OVC
09:50 53.0 °F 50.2 °F 30.13 in NW 9.0 mph 9.0 mph 90% 0.00 in OVC
09:55 53.0 °F 49.8 °F 30.14 in NW 9.0 mph 9.0 mph 89% 0.00 in OVC
10:00 53.0 °F 50.1 °F 30.14 in NW 9.0 mph 9.0 mph 90% 0.00 in OVC
10:05 53.2 °F 50.0 °F 30.14 in NW 9.0 mph 9.0 mph 89% 0.00 in OVC
10:10 53.0 °F 49.8 °F 30.15 in NW 9.0 mph 9.0 mph 89% 0.00 in OVC
10:15 52.9 °F 49.7 °F 30.15 in NW 12.0 mph 24.0 mph 89% 0.00 in OVC
10:20 53.0 °F 49.8 °F 30.15 in NW 12.0 mph 24.0 mph 89% 0.00 in OVC
10:25 53.0 °F 49.5 °F 30.15 in NW 12.0 mph 24.0 mph 88% 0.00 in OVC
10:30 53.1 °F 49.6 °F 30.15 in NW 12.0 mph 24.0 mph 88% 0.00 in OVC
10:40 53.7 °F 50.2 °F 30.15 in NW 12.0 mph 24.0 mph 88% 0.00 in OVC
10:45 54.1 °F 50.0 °F 30.16 in NW 13.0 mph 24.0 mph 86% 0.00 in OVC
10:50 54.4 °F 49.9 °F 30.15 in NNW 13.0 mph 21.0 mph 85% 0.00 in OVC
10:55 54.5 °F 50.4 °F 30.15 in NNW 13.0 mph 21.0 mph 86% 0.00 in OVC
11:00 54.5 °F 49.8 °F 30.15 in NNW 13.0 mph 21.0 mph 84% 0.00 in OVC
11:05 54.4 °F 50.3 °F 30.15 in NNW 13.0 mph 21.0 mph 86% 0.00 in OVC
11:10 54.6 °F 50.2 °F 30.16 in NNW 13.0 mph 21.0 mph 85% 0.00 in OVC
11:15 54.9 °F 50.1 °F 30.16 in NNW 14.0 mph 24.0 mph 84% 0.00 in BKN
11:20 55.3 °F 50.5 °F 30.16 in NNW 14.0 mph 24.0 mph 84% 0.00 in BKN
11:25 55.9 °F 51.1 °F 30.16 in NNW 14.0 mph 24.0 mph 84% 0.00 in BKN
11:30 56.2 °F 50.1 °F 30.16 in NNW 14.0 mph 24.0 mph 80% 0.00 in BKN
11:40 57.0 °F 50.5 °F 30.16 in NNW 14.0 mph 24.0 mph 79% 0.00 in BKN
11:45 57.5 °F 50.7 °F 30.16 in NW 14.0 mph 24.0 mph 78% 0.00 in BKN
11:50 58.1 °F 51.6 °F 30.15 in WNW 14.0 mph 14.0 mph 79% 0.00 in BKN
11:55 58.5 °F 51.0 °F 30.15 in WNW 14.0 mph 14.0 mph 76% 0.00 in BKN
12:00 58.9 °F 51.7 °F 30.15 in WNW 14.0 mph 14.0 mph 77% 0.00 in BKN
12:05 59.5 °F 52.3 °F 30.15 in WNW 14.0 mph 14.0 mph 77% 0.00 in BKN
12:10 59.9 °F 51.6 °F 30.15 in WNW 14.0 mph 14.0 mph 74% 0.00 in BKN
12:15 59.8 °F 51.5 °F 30.15 in WNW 12.0 mph 25.0 mph 74% 0.00 in BKN
12:20 59.8 °F 51.1 °F 30.15 in WNW 12.0 mph 25.0 mph 73% 0.00 in BKN
12:25 59.9 °F 51.2 °F 30.15 in WNW 12.0 mph 25.0 mph 73% 0.00 in BKN
12:30 60.2 °F 51.5 °F 30.15 in WNW 12.0 mph 25.0 mph 73% 0.00 in BKN
12:35 60.4 °F 51.0 °F 30.15 in WNW 12.0 mph 25.0 mph 71% 0.00 in BKN
12:40 60.5 °F 51.4 °F 30.15 in WNW 12.0 mph 25.0 mph 72% 0.00 in BKN
12:45 60.8 °F 52.0 °F 30.15 in WNW 12.0 mph 25.0 mph 73% 0.00 in BKN
12:50 60.9 °F 51.5 °F 30.15 in WNW 12.0 mph 25.0 mph 71% 0.00 in BKN
12:55 60.8 °F 51.8 °F 30.15 in WNW 12.0 mph 25.0 mph 72% 0.00 in BKN
13:00 60.6 °F 51.2 °F 30.15 in WNW 12.0 mph 25.0 mph 71% 0.00 in BKN
13:05 60.5 °F 51.0 °F 30.15 in WNW 12.0 mph 25.0 mph 71% 0.00 in BKN
13:10 60.5 °F 51.0 °F 30.15 in WNW 12.0 mph 25.0 mph 71% 0.00 in BKN
13:15 60.7 °F 50.9 °F 30.15 in NW 16.0 mph 29.0 mph 70% 0.00 in BKN
13:20 60.9 °F 51.0 °F 30.15 in NW 16.0 mph 29.0 mph 70% 0.00 in BKN
13:25 60.8 °F 51.7 °F 30.15 in NW 16.0 mph 29.0 mph 72% 0.00 in BKN
13:30 60.6 °F 50.4 °F 30.15 in NW 16.0 mph 29.0 mph 69% 0.00 in BKN
13:35 60.5 °F 51.0 °F 30.15 in NW 16.0 mph 29.0 mph 71% 0.00 in BKN
13:40 60.7 °F 51.6 °F 30.14 in NW 16.0 mph 29.0 mph 72% 0.00 in BKN
13:45 60.9 °F 51.0 °F 30.14 in NW 16.0 mph 29.0 mph 70% 0.00 in BKN
13:50 61.6 °F 51.3 °F 30.14 in NW 16.0 mph 29.0 mph 69% 0.00 in BKN
13:55 62.5 °F 51.8 °F 30.13 in NW 16.0 mph 29.0 mph 68% 0.00 in BKN
14:00 63.2 °F 50.8 °F 30.13 in NW 16.0 mph 29.0 mph 64% 0.00 in BKN
14:05 63.4 °F 51.4 °F 30.13 in NW 16.0 mph 29.0 mph 65% 0.00 in BKN
14:10 63.2 °F 51.6 °F 30.13 in NW 16.0 mph 29.0 mph 66% 0.00 in BKN
14:15 63.3 °F 50.9 °F 30.13 in NW 9.0 mph 29.0 mph 64% 0.00 in BKN
14:20 63.8 °F 52.2 °F 30.12 in NW 9.0 mph 9.0 mph 66% 0.00 in BKN
14:25 64.1 °F 50.4 °F 30.12 in NW 9.0 mph 9.0 mph 61% 0.00 in BKN
14:30 63.9 °F 51.5 °F 30.12 in NW 9.0 mph 9.0 mph 64% 0.00 in BKN
14:40 63.5 °F 49.3 °F 30.12 in NW 9.0 mph 9.0 mph 60% 0.00 in BKN
14:45 63.3 °F 49.2 °F 30.12 in NW 9.0 mph 9.0 mph 60% 0.00 in BKN
14:50 63.2 °F 50.0 °F 30.12 in NW 9.0 mph 9.0 mph 62% 0.00 in BKN
14:55 63.5 °F 50.2 °F 30.11 in NW 9.0 mph 9.0 mph 62% 0.00 in BKN
15:00 63.5 °F 50.2 °F 30.11 in NW 9.0 mph 9.0 mph 62% 0.00 in BKN
15:05 63.9 °F 51.4 °F 30.11 in NW 9.0 mph 9.0 mph 64% 0.00 in BKN
15:10 64.1 °F 49.9 °F 30.11 in NW 9.0 mph 9.0 mph 60% 0.00 in BKN
15:15 64.1 °F 49.5 °F 30.11 in NW 12.0 mph 29.0 mph 59% 0.00 in SCT
15:20 64.0 °F 49.4 °F 30.11 in NNW 12.0 mph 29.0 mph 59% 0.00 in SCT
15:25 64.0 °F 49.8 °F 30.11 in NNW 12.0 mph 29.0 mph 60% 0.00 in SCT
15:30 64.0 °F 49.8 °F 30.11 in NNW 12.0 mph 29.0 mph 60% 0.00 in SCT
15:35 64.0 °F 50.3 °F 30.11 in NNW 12.0 mph 29.0 mph 61% 0.00 in SCT
15:45 63.9 °F 49.7 °F 30.11 in NNW 12.0 mph 29.0 mph 60% 0.00 in SCT
15:50 63.7 °F 49.6 °F 30.11 in NNW 12.0 mph 29.0 mph 60% 0.00 in SCT
15:55 63.7 °F 49.5 °F 30.11 in NNW 12.0 mph 29.0 mph 60% 0.00 in SCT
16:00 63.8 °F 49.2 °F 30.11 in NNW 12.0 mph 29.0 mph 59% 0.00 in SCT
16:05 63.8 °F 49.7 °F 30.11 in NNW 12.0 mph 29.0 mph 60% 0.00 in SCT
16:10 63.9 °F 48.8 °F 30.11 in NNW 12.0 mph 29.0 mph 58% 0.00 in SCT
16:15 63.9 °F 49.3 °F 30.12 in NNW 18.0 mph 29.0 mph 59% 0.00 in FEW
16:20 64.0 °F 49.3 °F 30.12 in NNW 18.0 mph 26.0 mph 59% 0.00 in FEW
16:25 63.9 °F 49.3 °F 30.11 in NNW 18.0 mph 26.0 mph 59% 0.00 in FEW
16:30 63.8 °F 48.7 °F 30.12 in NNW 18.0 mph 26.0 mph 58% 0.00 in FEW
16:35 63.7 °F 49.5 °F 30.12 in NNW 18.0 mph 26.0 mph 60% 0.00 in FEW
16:40 63.6 °F 49.9 °F 30.12 in NNW 18.0 mph 26.0 mph 61% 0.00 in FEW
16:50 63.5 °F 48.9 °F 30.12 in NNW 18.0 mph 26.0 mph 59% 0.00 in FEW
16:55 63.3 °F 48.7 °F 30.12 in NNW 18.0 mph 26.0 mph 59% 0.00 in FEW
17:00 63.2 °F 49.0 °F 30.11 in NNW 18.0 mph 26.0 mph 60% 0.00 in FEW
17:05 63.1 °F 49.0 °F 30.12 in NNW 18.0 mph 26.0 mph 60% 0.00 in FEW
17:10 63.2 °F 49.5 °F 30.12 in NNW 18.0 mph 26.0 mph 61% 0.00 in FEW
17:15 63.1 °F 49.4 °F 30.12 in NW 13.0 mph 26.0 mph 61% 0.00 in FEW
17:20 63.0 °F 49.7 °F 30.12 in NW 13.0 mph 23.0 mph 62% 0.00 in FEW
17:25 62.8 °F 48.7 °F 30.12 in NW 13.0 mph 23.0 mph 60% 0.00 in FEW
17:30 62.7 °F 49.0 °F 30.12 in NW 13.0 mph 23.0 mph 61% 0.00 in FEW
17:35 62.6 °F 48.5 °F 30.12 in NW 13.0 mph 23.0 mph 60% 0.00 in FEW
17:40 62.4 °F 48.8 °F 30.12 in NW 13.0 mph 23.0 mph 61% 0.00 in FEW
17:45 62.2 °F 48.1 °F 30.12 in NW 13.0 mph 23.0 mph 60% 0.00 in FEW
17:50 62.1 °F 48.9 °F 30.12 in NW 13.0 mph 23.0 mph 62% 0.00 in FEW
17:55 62.0 °F 48.4 °F 30.12 in NW 13.0 mph 23.0 mph 61% 0.00 in FEW
18:00 61.8 °F 49.0 °F 30.12 in NW 13.0 mph 23.0 mph 63% 0.00 in FEW
18:05 61.4 °F 49.1 °F 30.13 in NW 13.0 mph 23.0 mph 64% 0.00 in FEW
18:10 61.2 °F 48.9 °F 30.13 in NW 13.0 mph 23.0 mph 64% 0.00 in FEW
18:15 61.0 °F 48.4 °F 30.13 in NW 14.0 mph 23.0 mph 63% 0.00 in FEW
18:20 60.9 °F 48.2 °F 30.13 in NW 14.0 mph 14.0 mph 63% 0.00 in FEW
18:25 60.7 °F 48.0 °F 30.13 in NW 14.0 mph 14.0 mph 63% 0.00 in FEW
18:30 60.5 °F 47.4 °F 30.14 in NW 14.0 mph 14.0 mph 62% 0.00 in FEW
18:40 59.9 °F 48.5 °F 30.14 in NW 14.0 mph 14.0 mph 66% 0.00 in FEW
18:45 59.5 °F 48.1 °F 30.14 in NW 14.0 mph 14.0 mph 66% 0.00 in FEW
18:50 59.2 °F 48.2 °F 30.14 in NW 14.0 mph 14.0 mph 67% 0.00 in FEW
18:55 58.9 °F 48.3 °F 30.14 in NW 14.0 mph 14.0 mph 68% 0.00 in FEW
19:00 58.6 °F 47.6 °F 30.14 in NW 14.0 mph 14.0 mph 67% 0.00 in FEW
19:05 58.4 °F 48.3 °F 30.14 in NW 14.0 mph 14.0 mph 69% 0.00 in FEW
19:10 58.0 °F 47.8 °F 30.14 in NW 14.0 mph 14.0 mph 69% 0.00 in FEW
19:15 57.7 °F 48.0 °F 30.15 in NW 9.0 mph 21.0 mph 70% 0.00 in SCT
19:20 57.4 °F 47.7 °F 30.15 in NW 9.0 mph 21.0 mph 70% 0.00 in SCT
19:25 57.2 °F 47.9 °F 30.15 in NW 9.0 mph 21.0 mph 71% 0.00 in SCT
19:30 56.9 °F 48.0 °F 30.15 in NW 9.0 mph 21.0 mph 72% 0.00 in SCT
19:40 56.6 °F 48.0 °F 30.15 in NW 9.0 mph 21.0 mph 73% 0.00 in SCT
19:45 56.4 °F 47.4 °F 30.16 in NW 9.0 mph 21.0 mph 72% 0.00 in SCT
19:50 56.3 °F 47.0 °F 30.16 in NW 9.0 mph 21.0 mph 71% 0.00 in SCT
19:55 56.3 °F 46.6 °F 30.16 in NW 9.0 mph 21.0 mph 70% 0.00 in SCT
20:00 56.3 °F 46.6 °F 30.16 in NW 9.0 mph 21.0 mph 70% 0.00 in SCT
20:05 56.1 °F 46.1 °F 30.17 in NW 9.0 mph 21.0 mph 69% 0.00 in SCT
20:10 56.0 °F 46.0 °F 30.17 in NW 9.0 mph 21.0 mph 69% 0.00 in SCT
20:15 55.9 °F 45.9 °F 30.17 in NNW 10.0 mph 21.0 mph 69% 0.00 in FEW
20:20 55.9 °F 45.1 °F 30.17 in NNW 10.0 mph 10.0 mph 67% 0.00 in FEW
20:25 55.8 °F 45.0 °F 30.18 in NNW 10.0 mph 10.0 mph 67% 0.00 in FEW
20:30 55.7 °F 45.7 °F 30.18 in NNW 10.0 mph 10.0 mph 69% 0.00 in FEW
20:35 55.6 °F 45.2 °F 30.18 in NNW 10.0 mph 10.0 mph 68% 0.00 in FEW
20:40 55.5 °F 44.7 °F 30.18 in NNW 10.0 mph 10.0 mph 67% 0.00 in FEW
20:45 55.4 °F 45.0 °F 30.19 in NNW 10.0 mph 10.0 mph 68% 0.00 in FEW
20:50 55.2 °F 44.8 °F 30.19 in NNW 10.0 mph 10.0 mph 68% 0.00 in FEW
20:55 55.1 °F 44.7 °F 30.20 in NNW 10.0 mph 10.0 mph 68% 0.00 in FEW
21:00 55.0 °F 44.6 °F 30.20 in NNW 10.0 mph 10.0 mph 68% 0.00 in FEW
21:05 54.8 °F 45.2 °F 30.20 in NNW 10.0 mph 10.0 mph 70% 0.00 in FEW
21:10 54.7 °F 44.7 °F 30.20 in NNW 10.0 mph 10.0 mph 69% 0.00 in FEW
21:15 54.5 °F 45.3 °F 30.20 in NNW 10.0 mph 20.0 mph 71% 0.00 in FEW
21:20 54.3 °F 45.1 °F 30.21 in NNW 10.0 mph 20.0 mph 71% 0.00 in FEW
21:25 54.1 °F 44.9 °F 30.21 in NNW 10.0 mph 20.0 mph 71% 0.00 in FEW
21:30 54.1 °F 44.9 °F 30.21 in NNW 10.0 mph 20.0 mph 71% 0.00 in FEW
21:35 53.9 °F 45.1 °F 30.21 in NNW 10.0 mph 20.0 mph 72% 0.00 in FEW
21:45 53.8 °F 45.0 °F 30.22 in NNW 10.0 mph 20.0 mph 72% 0.00 in FEW
21:50 53.7 °F 44.9 °F 30.22 in NNW 10.0 mph 20.0 mph 72% 0.00 in FEW
21:55 53.6 °F 45.2 °F 30.22 in NNW 10.0 mph 20.0 mph 73% 0.00 in FEW
22:00 53.5 °F 45.8 °F 30.23 in NNW 10.0 mph 20.0 mph 75% 0.00 in FEW
22:05 53.3 °F 45.3 °F 30.23 in NNW 10.0 mph 20.0 mph 74% 0.00 in FEW
22:10 53.2 °F 45.5 °F 30.23 in NNW 10.0 mph 20.0 mph 75% 0.00 in FEW
22:15 53.0 °F 46.0 °F 30.23 in North 6.0 mph 20.0 mph 77% 0.00 in FEW
22:20 52.8 °F 45.7 °F 30.23 in North 6.0 mph 6.0 mph 77% 0.00 in FEW
22:25 52.5 °F 45.8 °F 30.24 in North 6.0 mph 6.0 mph 78% 0.00 in FEW
22:30 52.3 °F 46.0 °F 30.24 in North 6.0 mph 6.0 mph 79% 0.00 in FEW
22:40 52.1 °F 46.4 °F 30.24 in North 6.0 mph 6.0 mph 81% 0.00 in FEW
22:50 51.6 °F 46.0 °F 30.24 in North 6.0 mph 6.0 mph 81% 0.00 in FEW
22:55 51.5 °F 46.2 °F 30.24 in North 6.0 mph 6.0 mph 82% 0.00 in FEW
23:00 51.4 °F 46.1 °F 30.24 in North 6.0 mph 6.0 mph 82% 0.00 in FEW
23:05 51.3 °F 46.3 °F 30.25 in North 6.0 mph 6.0 mph 83% 0.00 in FEW
23:10 51.2 °F 46.2 °F 30.25 in North 6.0 mph 6.0 mph 83% 0.00 in FEW
23:20 51.0 °F 46.0 °F 30.25 in North 6.0 mph 6.0 mph 83% 0.00 in FEW
23:25 50.8 °F 45.8 °F 30.25 in North 6.0 mph 6.0 mph 83% 0.00 in FEW
23:30 50.7 °F 45.7 °F 30.25 in North 6.0 mph 6.0 mph 83% 0.00 in FEW
23:40 50.4 °F 45.8 °F 30.25 in North 6.0 mph 6.0 mph 84% 0.00 in FEW
23:45 50.3 °F 46.0 °F 30.25 in North 6.0 mph 6.0 mph 85% 0.00 in FEW
23:50 50.2 °F 45.9 °F 30.25 in North 6.0 mph 6.0 mph 85% 0.00 in FEW
23:55 50.1 °F 45.8 °F 30.25 in North 6.0 mph 6.0 mph 85% 0.00 in FEW
Piedmont Bend
Compliments of Weather Underground - 2 mb